Portada
METAR-TAF:

METAR-TAF

Aeropuertos :

Aeropuerto Internacional de Bania Luka

Bania Luka, Bosnia y Herzegovina

latitud: 44-47N, longitud: 017-13E, altitud: 156 m

Observación

El informe se hizo hace 11 minutos, a las 11:00 UTC
Viento 12 kt del noreste
Temperatura 15°C
Humedad 27%
Presión 1020 hPa
Visibilidad 10 km o más
sin nubes por debajo de 1500 m y sin presencia de cumulonimbus.

METAR: LQBK 041100Z 04012KT CAVOK 15/M04 Q1020 NOSIG

Hora: 13:11 (11:11 UTC)

Pronóstico

El informe se hizo hace 6 horas y 11 minutos, a las 05:00 UTC
Pronóstico válido del 04 a las 06 UTC al 05 a las 06 UTC
Viento 5 kt del este
Visibilidad 10 km o más
sin nubes por debajo de 1500 m y sin presencia de cumulonimbus.
Temporalmente
del 04 a las 10 UTC al 04 a las 21 UTC
Viento 12 kt del norte-noreste

TAF: LQBK 040500Z 0406/0506 08005KT CAVOK TX18/0413Z TN00/0406Z TEMPO 0410/0421 02012KT

Observaciones y pronósticos meteorológicos de más de 4000 aeropuertos (mensajes METAR y TAF).

Los puntos amarillos y rojos representan las estaciones disponibles.

Ponga el ratón en el punto deseado para ver el nombre de la estación.

Haga clic para ver las observaciones y los pronósticos meteorológicos.

Para cambiar el mapa : haga clic en los botones verdes con una cruz de color negro para hacer un zoom, en el botón verde con un guión para alejar o en las flechas verdes para mapas adyacentes.


METAR-TAF: